sensor_id;sensor_type;location;lat;lon;timestamp;P1;durP1;ratioP1;P2;durP2;ratioP2
41532;SDS011;27262;-35.248;149.138;2023-06-22T00:01:10;2.35;;;1.20;;
41532;SDS011;27262;-35.248;149.138;2023-06-22T00:03:41;5.22;;;1.65;;
41532;SDS011;27262;-35.248;149.138;2023-06-22T00:06:11;6.57;;;1.85;;
41532;SDS011;27262;-35.248;149.138;2023-06-22T00:08:42;4.43;;;1.40;;
41532;SDS011;27262;-35.248;149.138;2023-06-22T00:11:12;2.65;;;1.20;;
41532;SDS011;27262;-35.248;149.138;2023-06-22T00:13:43;3.53;;;1.15;;
41532;SDS011;27262;-35.248;149.138;2023-06-22T00:16:13;2.33;;;1.23;;
41532;SDS011;27262;-35.248;149.138;2023-06-22T00:18:43;1.10;;;0.95;;
41532;SDS011;27262;-35.248;149.138;2023-06-22T00:21:15;3.03;;;1.00;;
41532;SDS011;27262;-35.248;149.138;2023-06-22T00:23:49;3.00;;;0.98;;
41532;SDS011;27262;-35.248;149.138;2023-06-22T00:26:19;3.65;;;1.48;;
41532;SDS011;27262;-35.248;149.138;2023-06-22T00:28:49;2.35;;;1.13;;
41532;SDS011;27262;-35.248;149.138;2023-06-22T00:31:20;2.05;;;1.17;;
41532;SDS011;27262;-35.248;149.138;2023-06-22T00:33:50;3.55;;;1.17;;
41532;SDS011;27262;-35.248;149.138;2023-06-22T00:36:21;2.20;;;1.10;;
41532;SDS011;27262;-35.248;149.138;2023-06-22T00:38:52;2.30;;;1.00;;
41532;SDS011;27262;-35.248;149.138;2023-06-22T00:41:22;3.55;;;1.17;;
41532;SDS011;27262;-35.248;149.138;2023-06-22T00:43:52;3.80;;;1.10;;
41532;SDS011;27262;-35.248;149.138;2023-06-22T00:46:23;1.95;;;0.82;;
41532;SDS011;27262;-35.248;149.138;2023-06-22T00:48:54;1.40;;;0.90;;
41532;SDS011;27262;-35.248;149.138;2023-06-22T00:51:25;1.23;;;0.90;;
41532;SDS011;27262;-35.248;149.138;2023-06-22T00:53:56;2.58;;;0.98;;
41532;SDS011;27262;-35.248;149.138;2023-06-22T00:56:27;0.85;;;0.75;;
41532;SDS011;27262;-35.248;149.138;2023-06-22T00:58:58;1.73;;;0.82;;
41532;SDS011;27262;-35.248;149.138;2023-06-22T01:01:32;1.35;;;0.95;;
41532;SDS011;27262;-35.248;149.138;2023-06-22T01:04:02;1.90;;;1.30;;
41532;SDS011;27262;-35.248;149.138;2023-06-22T01:06:35;4.68;;;1.30;;
41532;SDS011;27262;-35.248;149.138;2023-06-22T01:09:19;1.25;;;0.93;;
41532;SDS011;27262;-35.248;149.138;2023-06-22T01:12:01;4.47;;;1.38;;
41532;SDS011;27262;-35.248;149.138;2023-06-22T01:14:42;6.47;;;1.10;;
41532;SDS011;27262;-35.248;149.138;2023-06-22T01:17:20;4.60;;;1.10;;
41532;SDS011;27262;-35.248;149.138;2023-06-22T01:19:54;3.70;;;1.20;;
41532;SDS011;27262;-35.248;149.138;2023-06-22T01:22:28;4.35;;;1.23;;
41532;SDS011;27262;-35.248;149.138;2023-06-22T01:30:20;2.38;;;1.08;;
41532;SDS011;27262;-35.248;149.138;2023-06-22T01:32:55;2.30;;;1.02;;
41532;SDS011;27262;-35.248;149.138;2023-06-22T01:35:27;1.10;;;0.88;;
41532;SDS011;27262;-35.248;149.138;2023-06-22T01:38:00;1.13;;;1.00;;
41532;SDS011;27262;-35.248;149.138;2023-06-22T01:40:31;3.15;;;1.10;;
41532;SDS011;27262;-35.248;149.138;2023-06-22T01:43:03;1.25;;;1.15;;
41532;SDS011;27262;-35.248;149.138;2023-06-22T01:45:34;2.78;;;1.02;;
41532;SDS011;27262;-35.248;149.138;2023-06-22T01:48:04;4.70;;;1.10;;
41532;SDS011;27262;-35.248;149.138;2023-06-22T01:50:35;1.85;;;0.90;;
41532;SDS011;27262;-35.248;149.138;2023-06-22T01:53:06;1.45;;;0.75;;
41532;SDS011;27262;-35.248;149.138;2023-06-22T01:55:36;1.50;;;0.80;;
41532;SDS011;27262;-35.248;149.138;2023-06-22T01:58:07;1.75;;;0.80;;
41532;SDS011;27262;-35.248;149.138;2023-06-22T02:00:38;0.80;;;0.80;;
41532;SDS011;27262;-35.248;149.138;2023-06-22T02:03:14;2.88;;;1.02;;
41532;SDS011;27262;-35.248;149.138;2023-06-22T02:05:54;1.13;;;0.85;;
41532;SDS011;27262;-35.248;149.138;2023-06-22T02:08:41;2.78;;;1.15;;
41532;SDS011;27262;-35.248;149.138;2023-06-22T02:11:18;3.17;;;0.77;;
41532;SDS011;27262;-35.248;149.138;2023-06-22T02:13:50;1.88;;;0.90;;
41532;SDS011;27262;-35.248;149.138;2023-06-22T02:16:21;1.30;;;0.73;;
41532;SDS011;27262;-35.248;149.138;2023-06-22T02:18:52;3.28;;;0.77;;
41532;SDS011;27262;-35.248;149.138;2023-06-22T02:21:23;1.15;;;0.68;;
41532;SDS011;27262;-35.248;149.138;2023-06-22T02:23:53;0.85;;;0.70;;
41532;SDS011;27262;-35.248;149.138;2023-06-22T02:26:24;0.95;;;0.68;;
41532;SDS011;27262;-35.248;149.138;2023-06-22T02:28:55;1.27;;;0.95;;
41532;SDS011;27262;-35.248;149.138;2023-06-22T02:31:25;3.33;;;0.80;;
41532;SDS011;27262;-35.248;149.138;2023-06-22T02:33:59;4.90;;;0.80;;
41532;SDS011;27262;-35.248;149.138;2023-06-22T02:36:29;0.70;;;0.70;;
41532;SDS011;27262;-35.248;149.138;2023-06-22T02:39:01;1.27;;;0.73;;
41532;SDS011;27262;-35.248;149.138;2023-06-22T02:41:32;1.67;;;0.80;;
41532;SDS011;27262;-35.248;149.138;2023-06-22T02:44:02;1.13;;;0.80;;
41532;SDS011;27262;-35.248;149.138;2023-06-22T02:46:33;1.33;;;0.70;;
41532;SDS011;27262;-35.248;149.138;2023-06-22T02:49:04;1.73;;;0.93;;
41532;SDS011;27262;-35.248;149.138;2023-06-22T02:51:35;1.00;;;0.63;;
41532;SDS011;27262;-35.248;149.138;2023-06-22T02:54:08;1.10;;;0.60;;
41532;SDS011;27262;-35.248;149.138;2023-06-22T02:56:38;3.45;;;0.80;;
41532;SDS011;27262;-35.248;149.138;2023-06-22T02:59:09;0.90;;;0.75;;
41532;SDS011;27262;-35.248;149.138;2023-06-22T03:01:40;1.00;;;0.60;;
41532;SDS011;27262;-35.248;149.138;2023-06-22T03:04:11;0.70;;;0.40;;
41532;SDS011;27262;-35.248;149.138;2023-06-22T03:06:42;1.13;;;0.80;;
41532;SDS011;27262;-35.248;149.138;2023-06-22T03:09:12;3.80;;;0.85;;
41532;SDS011;27262;-35.248;149.138;2023-06-22T03:11:43;1.20;;;0.68;;
41532;SDS011;27262;-35.248;149.138;2023-06-22T03:14:13;2.60;;;0.80;;
41532;SDS011;27262;-35.248;149.138;2023-06-22T03:16:43;5.53;;;0.85;;
41532;SDS011;27262;-35.248;149.138;2023-06-22T03:19:13;1.15;;;0.70;;
41532;SDS011;27262;-35.248;149.138;2023-06-22T03:21:44;1.17;;;0.60;;
41532;SDS011;27262;-35.248;149.138;2023-06-22T03:24:14;0.77;;;0.70;;
41532;SDS011;27262;-35.248;149.138;2023-06-22T03:26:44;0.98;;;0.70;;
41532;SDS011;27262;-35.248;149.138;2023-06-22T03:29:15;4.70;;;0.82;;
41532;SDS011;27262;-35.248;149.138;2023-06-22T03:31:45;0.80;;;0.70;;
41532;SDS011;27262;-35.248;149.138;2023-06-22T03:34:16;2.35;;;0.80;;
41532;SDS011;27262;-35.248;149.138;2023-06-22T03:36:47;2.05;;;0.80;;
41532;SDS011;27262;-35.248;149.138;2023-06-22T03:39:17;1.90;;;0.80;;
41532;SDS011;27262;-35.248;149.138;2023-06-22T03:41:48;1.05;;;0.77;;
41532;SDS011;27262;-35.248;149.138;2023-06-22T03:44:18;1.90;;;0.80;;
41532;SDS011;27262;-35.248;149.138;2023-06-22T03:46:49;2.33;;;0.60;;
41532;SDS011;27262;-35.248;149.138;2023-06-22T03:49:19;1.17;;;0.63;;
41532;SDS011;27262;-35.248;149.138;2023-06-22T03:51:49;1.00;;;0.43;;
41532;SDS011;27262;-35.248;149.138;2023-06-22T03:54:19;1.42;;;0.90;;
41532;SDS011;27262;-35.248;149.138;2023-06-22T03:56:50;1.77;;;0.75;;
41532;SDS011;27262;-35.248;149.138;2023-06-22T03:59:20;0.85;;;0.63;;
41532;SDS011;27262;-35.248;149.138;2023-06-22T04:01:50;0.63;;;0.50;;
41532;SDS011;27262;-35.248;149.138;2023-06-22T04:04:21;0.73;;;0.60;;
41532;SDS011;27262;-35.248;149.138;2023-06-22T04:06:51;1.95;;;0.55;;
41532;SDS011;27262;-35.248;149.138;2023-06-22T04:09:22;0.77;;;0.60;;
41532;SDS011;27262;-35.248;149.138;2023-06-22T04:11:52;2.42;;;0.98;;
41532;SDS011;27262;-35.248;149.138;2023-06-22T04:14:23;1.48;;;0.73;;
41532;SDS011;27262;-35.248;149.138;2023-06-22T04:16:54;2.40;;;0.60;;
41532;SDS011;27262;-35.248;149.138;2023-06-22T04:19:24;1.73;;;0.77;;
41532;SDS011;27262;-35.248;149.138;2023-06-22T04:21:54;1.10;;;0.63;;
41532;SDS011;27262;-35.248;149.138;2023-06-22T04:24:25;1.48;;;0.65;;
41532;SDS011;27262;-35.248;149.138;2023-06-22T04:26:55;3.13;;;0.95;;
41532;SDS011;27262;-35.248;149.138;2023-06-22T04:29:26;1.27;;;0.70;;
41532;SDS011;27262;-35.248;149.138;2023-06-22T04:31:58;1.35;;;0.70;;
41532;SDS011;27262;-35.248;149.138;2023-06-22T04:34:31;1.00;;;0.60;;
41532;SDS011;27262;-35.248;149.138;2023-06-22T04:37:02;1.00;;;0.60;;
41532;SDS011;27262;-35.248;149.138;2023-06-22T04:39:32;1.52;;;0.70;;
41532;SDS011;27262;-35.248;149.138;2023-06-22T04:42:02;0.63;;;0.40;;
41532;SDS011;27262;-35.248;149.138;2023-06-22T04:44:33;2.38;;;0.52;;
41532;SDS011;27262;-35.248;149.138;2023-06-22T04:47:04;1.85;;;0.80;;
41532;SDS011;27262;-35.248;149.138;2023-06-22T04:49:37;2.22;;;0.88;;
41532;SDS011;27262;-35.248;149.138;2023-06-22T04:52:09;0.82;;;0.52;;
41532;SDS011;27262;-35.248;149.138;2023-06-22T04:54:41;0.68;;;0.68;;
41532;SDS011;27262;-35.248;149.138;2023-06-22T04:57:16;2.15;;;0.60;;
41532;SDS011;27262;-35.248;149.138;2023-06-22T04:59:46;2.00;;;0.65;;
41532;SDS011;27262;-35.248;149.138;2023-06-22T05:02:16;2.17;;;0.63;;
41532;SDS011;27262;-35.248;149.138;2023-06-22T05:04:47;1.85;;;0.95;;
41532;SDS011;27262;-35.248;149.138;2023-06-22T05:07:19;0.68;;;0.57;;
41532;SDS011;27262;-35.248;149.138;2023-06-22T05:09:54;1.63;;;0.80;;
41532;SDS011;27262;-35.248;149.138;2023-06-22T05:12:24;0.65;;;0.52;;
41532;SDS011;27262;-35.248;149.138;2023-06-22T05:14:54;0.73;;;0.40;;
41532;SDS011;27262;-35.248;149.138;2023-06-22T05:17:25;0.95;;;0.57;;
41532;SDS011;27262;-35.248;149.138;2023-06-22T05:19:55;1.00;;;0.60;;
41532;SDS011;27262;-35.248;149.138;2023-06-22T05:22:25;0.63;;;0.57;;
41532;SDS011;27262;-35.248;149.138;2023-06-22T05:24:56;1.52;;;0.60;;
41532;SDS011;27262;-35.248;149.138;2023-06-22T05:27:26;1.38;;;0.68;;
41532;SDS011;27262;-35.248;149.138;2023-06-22T05:29:56;1.27;;;0.63;;
41532;SDS011;27262;-35.248;149.138;2023-06-22T05:32:27;3.03;;;0.80;;
41532;SDS011;27262;-35.248;149.138;2023-06-22T05:34:57;3.05;;;0.60;;
41532;SDS011;27262;-35.248;149.138;2023-06-22T05:37:28;1.05;;;0.63;;
41532;SDS011;27262;-35.248;149.138;2023-06-22T05:39:59;1.33;;;0.60;;
41532;SDS011;27262;-35.248;149.138;2023-06-22T05:42:29;0.40;;;0.40;;
41532;SDS011;27262;-35.248;149.138;2023-06-22T05:45:00;1.35;;;0.80;;
41532;SDS011;27262;-35.248;149.138;2023-06-22T05:47:30;1.00;;;0.60;;
41532;SDS011;27262;-35.248;149.138;2023-06-22T05:50:00;1.40;;;0.50;;
41532;SDS011;27262;-35.248;149.138;2023-06-22T05:52:40;1.25;;;0.70;;
41532;SDS011;27262;-35.248;149.138;2023-06-22T05:55:10;1.08;;;0.35;;
41532;SDS011;27262;-35.248;149.138;2023-06-22T05:57:40;2.22;;;0.65;;
41532;SDS011;27262;-35.248;149.138;2023-06-22T06:00:11;2.65;;;0.60;;
41532;SDS011;27262;-35.248;149.138;2023-06-22T06:02:42;0.95;;;0.52;;
41532;SDS011;27262;-35.248;149.138;2023-06-22T06:05:12;0.82;;;0.65;;
41532;SDS011;27262;-35.248;149.138;2023-06-22T06:07:43;0.60;;;0.50;;
41532;SDS011;27262;-35.248;149.138;2023-06-22T06:10:14;1.15;;;0.50;;
41532;SDS011;27262;-35.248;149.138;2023-06-22T06:12:44;0.55;;;0.45;;
41532;SDS011;27262;-35.248;149.138;2023-06-22T06:15:15;0.90;;;0.60;;
41532;SDS011;27262;-35.248;149.138;2023-06-22T06:17:49;0.85;;;0.50;;
41532;SDS011;27262;-35.248;149.138;2023-06-22T06:20:22;0.93;;;0.60;;
41532;SDS011;27262;-35.248;149.138;2023-06-22T06:22:57;1.05;;;0.60;;
41532;SDS011;27262;-35.248;149.138;2023-06-22T06:25:27;0.63;;;0.60;;
41532;SDS011;27262;-35.248;149.138;2023-06-22T06:27:58;1.52;;;0.60;;
41532;SDS011;27262;-35.248;149.138;2023-06-22T06:30:28;0.90;;;0.70;;
41532;SDS011;27262;-35.248;149.138;2023-06-22T06:32:59;0.63;;;0.50;;
41532;SDS011;27262;-35.248;149.138;2023-06-22T06:35:30;1.10;;;0.65;;
41532;SDS011;27262;-35.248;149.138;2023-06-22T06:38:00;0.80;;;0.70;;
41532;SDS011;27262;-35.248;149.138;2023-06-22T06:40:31;1.88;;;0.70;;
41532;SDS011;27262;-35.248;149.138;2023-06-22T06:43:01;0.73;;;0.55;;
41532;SDS011;27262;-35.248;149.138;2023-06-22T06:45:32;1.95;;;0.60;;
41532;SDS011;27262;-35.248;149.138;2023-06-22T06:48:03;1.02;;;0.63;;
41532;SDS011;27262;-35.248;149.138;2023-06-22T06:50:33;0.70;;;0.60;;
41532;SDS011;27262;-35.248;149.138;2023-06-22T06:53:03;0.68;;;0.63;;
41532;SDS011;27262;-35.248;149.138;2023-06-22T06:55:34;1.70;;;0.70;;
41532;SDS011;27262;-35.248;149.138;2023-06-22T06:58:05;1.92;;;0.70;;
41532;SDS011;27262;-35.248;149.138;2023-06-22T07:00:38;1.10;;;0.73;;
41532;SDS011;27262;-35.248;149.138;2023-06-22T07:03:09;2.35;;;0.60;;
41532;SDS011;27262;-35.248;149.138;2023-06-22T07:05:40;2.75;;;0.63;;
41532;SDS011;27262;-35.248;149.138;2023-06-22T07:08:10;1.20;;;0.70;;
41532;SDS011;27262;-35.248;149.138;2023-06-22T07:10:41;0.95;;;0.65;;
41532;SDS011;27262;-35.248;149.138;2023-06-22T07:13:12;1.80;;;0.60;;
41532;SDS011;27262;-35.248;149.138;2023-06-22T07:15:42;3.20;;;0.57;;
41532;SDS011;27262;-35.248;149.138;2023-06-22T07:18:12;3.35;;;0.90;;
41532;SDS011;27262;-35.248;149.138;2023-06-22T07:20:43;1.67;;;0.85;;
41532;SDS011;27262;-35.248;149.138;2023-06-22T07:23:13;1.55;;;1.00;;
41532;SDS011;27262;-35.248;149.138;2023-06-22T07:25:43;2.13;;;0.77;;
41532;SDS011;27262;-35.248;149.138;2023-06-22T07:28:13;3.38;;;1.10;;
41532;SDS011;27262;-35.248;149.138;2023-06-22T07:30:43;1.63;;;0.70;;
41532;SDS011;27262;-35.248;149.138;2023-06-22T07:33:15;3.88;;;0.77;;
41532;SDS011;27262;-35.248;149.138;2023-06-22T07:35:45;1.20;;;0.80;;
41532;SDS011;27262;-35.248;149.138;2023-06-22T07:38:17;1.98;;;0.77;;
41532;SDS011;27262;-35.248;149.138;2023-06-22T07:40:58;5.05;;;0.80;;
41532;SDS011;27262;-35.248;149.138;2023-06-22T07:43:29;4.80;;;0.95;;
41532;SDS011;27262;-35.248;149.138;2023-06-22T07:46:01;2.25;;;0.80;;
41532;SDS011;27262;-35.248;149.138;2023-06-22T07:48:32;3.20;;;0.80;;
41532;SDS011;27262;-35.248;149.138;2023-06-22T07:51:05;2.85;;;0.82;;
41532;SDS011;27262;-35.248;149.138;2023-06-22T07:53:35;3.85;;;0.80;;
41532;SDS011;27262;-35.248;149.138;2023-06-22T07:56:05;4.10;;;0.60;;
41532;SDS011;27262;-35.248;149.138;2023-06-22T07:58:36;1.02;;;0.82;;
41532;SDS011;27262;-35.248;149.138;2023-06-22T08:01:06;1.20;;;0.80;;
41532;SDS011;27262;-35.248;149.138;2023-06-22T08:03:36;0.70;;;0.60;;
41532;SDS011;27262;-35.248;149.138;2023-06-22T08:06:08;2.55;;;0.90;;
41532;SDS011;27262;-35.248;149.138;2023-06-22T08:08:39;1.80;;;0.90;;
41532;SDS011;27262;-35.248;149.138;2023-06-22T08:11:11;1.13;;;0.82;;
41532;SDS011;27262;-35.248;149.138;2023-06-22T08:13:42;2.25;;;1.20;;
41532;SDS011;27262;-35.248;149.138;2023-06-22T08:16:13;2.20;;;0.82;;
41532;SDS011;27262;-35.248;149.138;2023-06-22T08:18:44;1.75;;;1.30;;
41532;SDS011;27262;-35.248;149.138;2023-06-22T08:21:14;1.98;;;1.13;;
41532;SDS011;27262;-35.248;149.138;2023-06-22T08:23:44;1.38;;;1.20;;
41532;SDS011;27262;-35.248;149.138;2023-06-22T08:26:15;2.47;;;1.42;;
41532;SDS011;27262;-35.248;149.138;2023-06-22T08:28:46;1.60;;;1.48;;
41532;SDS011;27262;-35.248;149.138;2023-06-22T08:31:17;2.28;;;1.77;;
41532;SDS011;27262;-35.248;149.138;2023-06-22T08:33:48;1.92;;;1.73;;
41532;SDS011;27262;-35.248;149.138;2023-06-22T08:36:19;2.72;;;1.65;;
41532;SDS011;27262;-35.248;149.138;2023-06-22T08:38:50;2.35;;;1.60;;
41532;SDS011;27262;-35.248;149.138;2023-06-22T08:41:22;3.22;;;2.00;;
41532;SDS011;27262;-35.248;149.138;2023-06-22T08:43:54;2.35;;;1.90;;
41532;SDS011;27262;-35.248;149.138;2023-06-22T08:46:24;2.63;;;2.00;;
41532;SDS011;27262;-35.248;149.138;2023-06-22T08:48:59;2.50;;;2.05;;
41532;SDS011;27262;-35.248;149.138;2023-06-22T08:51:30;2.38;;;2.00;;
41532;SDS011;27262;-35.248;149.138;2023-06-22T08:54:01;1.85;;;1.67;;
41532;SDS011;27262;-35.248;149.138;2023-06-22T08:56:33;4.25;;;1.83;;
41532;SDS011;27262;-35.248;149.138;2023-06-22T08:59:04;2.63;;;2.22;;
41532;SDS011;27262;-35.248;149.138;2023-06-22T09:01:36;2.03;;;1.65;;
41532;SDS011;27262;-35.248;149.138;2023-06-22T09:04:06;1.98;;;1.70;;
41532;SDS011;27262;-35.248;149.138;2023-06-22T09:06:38;2.28;;;1.50;;
41532;SDS011;27262;-35.248;149.138;2023-06-22T09:09:13;1.98;;;1.55;;
41532;SDS011;27262;-35.248;149.138;2023-06-22T09:11:44;1.90;;;1.42;;
41532;SDS011;27262;-35.248;149.138;2023-06-22T09:14:15;3.05;;;1.60;;
41532;SDS011;27262;-35.248;149.138;2023-06-22T09:16:47;2.55;;;1.75;;
41532;SDS011;27262;-35.248;149.138;2023-06-22T09:19:17;2.42;;;1.60;;
41532;SDS011;27262;-35.248;149.138;2023-06-22T09:21:47;2.30;;;1.50;;
41532;SDS011;27262;-35.248;149.138;2023-06-22T09:24:18;1.92;;;1.70;;
41532;SDS011;27262;-35.248;149.138;2023-06-22T09:26:48;1.67;;;1.58;;
41532;SDS011;27262;-35.248;149.138;2023-06-22T09:29:19;4.38;;;1.63;;
41532;SDS011;27262;-35.248;149.138;2023-06-22T09:31:49;1.50;;;1.30;;
41532;SDS011;27262;-35.248;149.138;2023-06-22T09:34:22;1.95;;;1.40;;
41532;SDS011;27262;-35.248;149.138;2023-06-22T09:36:52;1.90;;;1.35;;
41532;SDS011;27262;-35.248;149.138;2023-06-22T09:39:23;1.60;;;1.27;;
41532;SDS011;27262;-35.248;149.138;2023-06-22T09:41:53;1.25;;;1.15;;
41532;SDS011;27262;-35.248;149.138;2023-06-22T09:44:24;4.13;;;1.50;;
41532;SDS011;27262;-35.248;149.138;2023-06-22T09:46:54;1.85;;;1.38;;
41532;SDS011;27262;-35.248;149.138;2023-06-22T09:49:24;1.92;;;1.30;;
41532;SDS011;27262;-35.248;149.138;2023-06-22T09:52:13;2.00;;;1.38;;
41532;SDS011;27262;-35.248;149.138;2023-06-22T09:54:46;2.92;;;1.55;;
41532;SDS011;27262;-35.248;149.138;2023-06-22T09:57:17;2.88;;;1.58;;
41532;SDS011;27262;-35.248;149.138;2023-06-22T09:59:47;7.13;;;1.60;;
41532;SDS011;27262;-35.248;149.138;2023-06-22T10:02:17;5.57;;;1.60;;
41532;SDS011;27262;-35.248;149.138;2023-06-22T10:04:48;4.05;;;1.52;;
41532;SDS011;27262;-35.248;149.138;2023-06-22T10:07:19;1.52;;;0.93;;
41532;SDS011;27262;-35.248;149.138;2023-06-22T10:09:50;2.58;;;1.35;;
41532;SDS011;27262;-35.248;149.138;2023-06-22T10:12:20;5.38;;;1.15;;
41532;SDS011;27262;-35.248;149.138;2023-06-22T10:14:51;3.10;;;1.40;;
41532;SDS011;27262;-35.248;149.138;2023-06-22T10:17:21;2.47;;;1.15;;
41532;SDS011;27262;-35.248;149.138;2023-06-22T10:19:52;2.97;;;1.55;;
41532;SDS011;27262;-35.248;149.138;2023-06-22T10:22:22;5.32;;;1.55;;
41532;SDS011;27262;-35.248;149.138;2023-06-22T10:24:54;4.07;;;1.38;;
41532;SDS011;27262;-35.248;149.138;2023-06-22T10:27:24;3.50;;;1.30;;
41532;SDS011;27262;-35.248;149.138;2023-06-22T10:29:55;4.13;;;1.45;;
41532;SDS011;27262;-35.248;149.138;2023-06-22T10:32:25;4.13;;;1.45;;
41532;SDS011;27262;-35.248;149.138;2023-06-22T10:34:57;1.90;;;1.20;;
41532;SDS011;27262;-35.248;149.138;2023-06-22T10:37:27;2.00;;;1.17;;
41532;SDS011;27262;-35.248;149.138;2023-06-22T10:39:58;3.00;;;1.13;;
41532;SDS011;27262;-35.248;149.138;2023-06-22T10:42:28;2.28;;;1.50;;
41532;SDS011;27262;-35.248;149.138;2023-06-22T10:45:04;2.28;;;1.52;;
41532;SDS011;27262;-35.248;149.138;2023-06-22T10:47:35;1.98;;;1.30;;
41532;SDS011;27262;-35.248;149.138;2023-06-22T10:50:05;2.33;;;1.50;;
41532;SDS011;27262;-35.248;149.138;2023-06-22T10:52:36;2.95;;;1.30;;
41532;SDS011;27262;-35.248;149.138;2023-06-22T10:55:07;2.33;;;1.50;;
41532;SDS011;27262;-35.248;149.138;2023-06-22T10:57:38;1.77;;;1.13;;
41532;SDS011;27262;-35.248;149.138;2023-06-22T11:00:13;2.97;;;1.20;;
41532;SDS011;27262;-35.248;149.138;2023-06-22T11:02:44;2.03;;;1.42;;
41532;SDS011;27262;-35.248;149.138;2023-06-22T11:05:15;2.30;;;1.40;;
41532;SDS011;27262;-35.248;149.138;2023-06-22T11:07:45;2.38;;;1.50;;
41532;SDS011;27262;-35.248;149.138;2023-06-22T11:10:17;1.30;;;1.10;;
41532;SDS011;27262;-35.248;149.138;2023-06-22T11:12:48;3.20;;;1.73;;
41532;SDS011;27262;-35.248;149.138;2023-06-22T11:15:18;1.63;;;1.23;;
41532;SDS011;27262;-35.248;149.138;2023-06-22T11:17:49;1.55;;;1.35;;
41532;SDS011;27262;-35.248;149.138;2023-06-22T11:20:19;2.78;;;1.58;;
41532;SDS011;27262;-35.248;149.138;2023-06-22T11:22:50;2.92;;;1.77;;
41532;SDS011;27262;-35.248;149.138;2023-06-22T11:25:20;2.78;;;1.40;;
41532;SDS011;27262;-35.248;149.138;2023-06-22T11:27:50;2.08;;;1.30;;
41532;SDS011;27262;-35.248;149.138;2023-06-22T11:30:22;3.33;;;1.63;;
41532;SDS011;27262;-35.248;149.138;2023-06-22T11:32:53;4.15;;;1.60;;
41532;SDS011;27262;-35.248;149.138;2023-06-22T11:35:23;1.58;;;1.30;;
41532;SDS011;27262;-35.248;149.138;2023-06-22T11:37:54;2.65;;;1.70;;
41532;SDS011;27262;-35.248;149.138;2023-06-22T11:40:24;2.35;;;1.20;;
41532;SDS011;27262;-35.248;149.138;2023-06-22T11:42:55;3.10;;;1.38;;
41532;SDS011;27262;-35.248;149.138;2023-06-22T11:45:26;3.72;;;1.58;;
41532;SDS011;27262;-35.248;149.138;2023-06-22T11:47:57;3.22;;;1.40;;
41532;SDS011;27262;-35.248;149.138;2023-06-22T11:50:27;3.38;;;1.55;;
41532;SDS011;27262;-35.248;149.138;2023-06-22T11:52:58;3.20;;;1.55;;
41532;SDS011;27262;-35.248;149.138;2023-06-22T11:55:29;2.05;;;1.23;;
41532;SDS011;27262;-35.248;149.138;2023-06-22T11:57:59;2.53;;;1.50;;
41532;SDS011;27262;-35.248;149.138;2023-06-22T12:00:32;2.08;;;1.38;;
41532;SDS011;27262;-35.248;149.138;2023-06-22T12:03:17;3.05;;;1.40;;
41532;SDS011;27262;-35.248;149.138;2023-06-22T12:05:49;2.42;;;1.52;;
41532;SDS011;27262;-35.248;149.138;2023-06-22T12:08:23;1.85;;;1.25;;
41532;SDS011;27262;-35.248;149.138;2023-06-22T12:11:05;3.45;;;1.50;;
41532;SDS011;27262;-35.248;149.138;2023-06-22T12:13:36;3.45;;;1.30;;
41532;SDS011;27262;-35.248;149.138;2023-06-22T12:16:06;3.60;;;1.20;;
41532;SDS011;27262;-35.248;149.138;2023-06-22T12:18:37;1.38;;;1.10;;
41532;SDS011;27262;-35.248;149.138;2023-06-22T12:21:07;4.40;;;1.40;;
41532;SDS011;27262;-35.248;149.138;2023-06-22T12:23:37;2.75;;;2.10;;
41532;SDS011;27262;-35.248;149.138;2023-06-22T12:26:08;3.60;;;2.10;;
41532;SDS011;27262;-35.248;149.138;2023-06-22T12:28:38;2.35;;;1.70;;
41532;SDS011;27262;-35.248;149.138;2023-06-22T12:31:08;1.38;;;1.08;;
41532;SDS011;27262;-35.248;149.138;2023-06-22T12:33:39;2.33;;;1.23;;
41532;SDS011;27262;-35.248;149.138;2023-06-22T12:36:09;5.00;;;1.80;;
41532;SDS011;27262;-35.248;149.138;2023-06-22T12:38:39;8.30;;;2.40;;
41532;SDS011;27262;-35.248;149.138;2023-06-22T12:41:10;8.23;;;1.80;;
41532;SDS011;27262;-35.248;149.138;2023-06-22T12:43:40;4.80;;;1.90;;
41532;SDS011;27262;-35.248;149.138;2023-06-22T12:46:10;7.28;;;1.98;;
41532;SDS011;27262;-35.248;149.138;2023-06-22T12:48:41;3.97;;;1.40;;
41532;SDS011;27262;-35.248;149.138;2023-06-22T12:51:11;2.03;;;1.20;;
41532;SDS011;27262;-35.248;149.138;2023-06-22T12:53:41;4.45;;;1.30;;
41532;SDS011;27262;-35.248;149.138;2023-06-22T12:56:12;1.98;;;1.25;;
41532;SDS011;27262;-35.248;149.138;2023-06-22T12:58:42;2.75;;;1.00;;
41532;SDS011;27262;-35.248;149.138;2023-06-22T13:01:12;2.08;;;1.00;;
41532;SDS011;27262;-35.248;149.138;2023-06-22T13:03:46;2.40;;;1.30;;
41532;SDS011;27262;-35.248;149.138;2023-06-22T13:06:17;2.63;;;0.90;;
41532;SDS011;27262;-35.248;149.138;2023-06-22T13:08:47;1.05;;;0.80;;
41532;SDS011;27262;-35.248;149.138;2023-06-22T13:11:20;1.00;;;0.90;;
41532;SDS011;27262;-35.248;149.138;2023-06-22T13:13:51;1.65;;;0.80;;
41532;SDS011;27262;-35.248;149.138;2023-06-22T13:16:21;1.90;;;0.82;;
41532;SDS011;27262;-35.248;149.138;2023-06-22T13:18:51;1.33;;;0.80;;
41532;SDS011;27262;-35.248;149.138;2023-06-22T13:21:21;1.27;;;0.85;;
41532;SDS011;27262;-35.248;149.138;2023-06-22T13:23:52;1.17;;;0.82;;
41532;SDS011;27262;-35.248;149.138;2023-06-22T13:26:22;5.15;;;1.00;;
41532;SDS011;27262;-35.248;149.138;2023-06-22T13:28:53;1.10;;;1.00;;
41532;SDS011;27262;-35.248;149.138;2023-06-22T13:31:24;1.08;;;0.90;;
41532;SDS011;27262;-35.248;149.138;2023-06-22T13:33:54;1.65;;;0.80;;
41532;SDS011;27262;-35.248;149.138;2023-06-22T13:36:25;1.55;;;0.85;;
41532;SDS011;27262;-35.248;149.138;2023-06-22T13:39:00;2.92;;;0.85;;
41532;SDS011;27262;-35.248;149.138;2023-06-22T13:41:30;2.33;;;0.77;;
41532;SDS011;27262;-35.248;149.138;2023-06-22T13:44:01;1.63;;;0.90;;
41532;SDS011;27262;-35.248;149.138;2023-06-22T13:46:31;0.82;;;0.77;;
41532;SDS011;27262;-35.248;149.138;2023-06-22T13:49:01;1.00;;;0.60;;
41532;SDS011;27262;-35.248;149.138;2023-06-22T13:51:32;1.10;;;0.75;;
41532;SDS011;27262;-35.248;149.138;2023-06-22T13:54:02;1.13;;;0.73;;
41532;SDS011;27262;-35.248;149.138;2023-06-22T13:56:53;0.90;;;0.70;;
41532;SDS011;27262;-35.248;149.138;2023-06-22T13:59:23;1.77;;;0.80;;
41532;SDS011;27262;-35.248;149.138;2023-06-22T14:01:56;0.73;;;0.65;;
41532;SDS011;27262;-35.248;149.138;2023-06-22T14:04:26;1.02;;;0.60;;
41532;SDS011;27262;-35.248;149.138;2023-06-22T14:06:57;0.95;;;0.60;;
41532;SDS011;27262;-35.248;149.138;2023-06-22T14:09:28;1.48;;;0.77;;
41532;SDS011;27262;-35.248;149.138;2023-06-22T14:11:59;1.98;;;1.02;;
41532;SDS011;27262;-35.248;149.138;2023-06-22T14:14:35;1.02;;;0.70;;
41532;SDS011;27262;-35.248;149.138;2023-06-22T14:17:06;0.68;;;0.68;;
41532;SDS011;27262;-35.248;149.138;2023-06-22T14:19:36;0.70;;;0.60;;
41532;SDS011;27262;-35.248;149.138;2023-06-22T14:22:06;0.60;;;0.60;;
41532;SDS011;27262;-35.248;149.138;2023-06-22T14:24:37;1.67;;;0.70;;
41532;SDS011;27262;-35.248;149.138;2023-06-22T14:27:07;1.00;;;0.70;;
41532;SDS011;27262;-35.248;149.138;2023-06-22T14:29:38;1.08;;;0.80;;
41532;SDS011;27262;-35.248;149.138;2023-06-22T14:32:08;0.63;;;0.60;;
41532;SDS011;27262;-35.248;149.138;2023-06-22T14:34:38;0.80;;;0.55;;
41532;SDS011;27262;-35.248;149.138;2023-06-22T14:37:09;0.52;;;0.50;;